Time;durP1;ratioP1;P1;durP2;ratioP2;P2;SDS_P1;SDS_P2;PMS_P1;PMS_P2;Temp;Humidity;BMP_temperature;BMP_pressure;BME280_temperature;BME280_humidity;BME280_pressure;Samples;Min_cycle;Max_cycle;Signal;HPM_P1;HPM_P2
2022/08/10 00:01:01;;;;;;;;;;;;;;;;;;5092267;28;19911;-42
2022/08/10 00:03:26;;;;;;;;;;;;;;;;;;5092191;28;20273;-41
2022/08/10 00:05:53;;;;;;;;;;;;;;;;;;5092419;28;19948;-42
2022/08/10 00:08:19;;;;;;;;;;;;;;;;;;5092097;28;19912;-42
2022/08/10 00:10:44;;;;;;;;;;;;;;;;;;5092040;28;20312;-41
2022/08/10 00:13:09;;;;;;;;;;;;;;;;;;5091903;28;19912;-42
2022/08/10 00:15:34;;;;;;;;;;;;;;;;;;5091977;28;19909;-43
2022/08/10 00:18:00;;;;;;;;;;;;;;;;;;5091818;28;19931;-41
2022/08/10 00:20:25;;;;;;;;;;;;;;;;;;5090737;28;19908;-41
2022/08/10 00:22:50;;;;;;;;;;;;;;;;;;5091918;28;19957;-41
2022/08/10 00:25:15;;;;;;;;;;;;;;;;;;5092158;28;20421;-41
2022/08/10 00:27:41;;;;;;;;;;;;;;;;;;5091997;28;19958;-41
2022/08/10 00:30:06;;;;;;;;;;;;;;;;;;5090604;28;19908;-41
2022/08/10 00:32:31;;;;;;;;;;;;;;;;;;5091945;28;19912;-41
2022/08/10 00:34:57;;;;;;;;;;;;;;;;;;5091934;28;19912;-41
2022/08/10 00:37:22;;;;;;;;;;;;;;;;;;5091614;28;19967;-43
2022/08/10 00:39:48;;;;;;;;;;;;;;;;;;5091876;28;19912;-41
2022/08/10 00:42:13;;;;;;;;;;;;;;;;;;5091611;28;20018;-41
2022/08/10 00:44:38;;;;;;;;;;;;;;;;;;5091772;28;19908;-41
2022/08/10 00:47:04;;;;;;;;;;;;;;;;;;5091806;28;19912;-42
2022/08/10 00:49:29;;;;;;;;;;;;;;;;;;5091686;28;19908;-42
2022/08/10 00:51:54;;;;;;;;;;;;;;;;;;5091768;28;19919;-41
2022/08/10 00:54:19;;;;;;;;;;;;;;;;;;5091680;28;19959;-41
2022/08/10 00:56:45;;;;;;;;;;;;;;;;;;5091939;28;19919;-40
2022/08/10 00:59:10;;;;;;;;;;;;;;;;;;5091560;28;19990;-42
2022/08/10 01:01:36;;;;;;;;;;;;;;;;;;5091600;28;19941;-42
2022/08/10 01:04:03;;;;;;;;;;;;;;;;;;5091922;28;19920;-42
2022/08/10 01:06:28;;;;;;;;;;;;;;;;;;5091553;28;19945;-41
2022/08/10 01:08:54;;;;;;;;;;;;;;;;;;5091582;28;19970;-42
2022/08/10 01:11:19;;;;;;;;;;;;;;;;;;5091422;28;20003;-41
2022/08/10 01:13:44;;;;;;;;;;;;;;;;;;5091596;28;19915;-40
2022/08/10 01:16:10;;;;;;;;;;;;;;;;;;5091558;28;19919;-43
2022/08/10 01:18:35;;;;;;;;;;;;;;;;;;5091225;28;19950;-41
2022/08/10 01:21:00;;;;;;;;;;;;;;;;;;5091405;28;19913;-40
2022/08/10 01:23:25;;;;;;;;;;;;;;;;;;5091423;28;20002;-41
2022/08/10 01:25:51;;;;;;;;;;;;;;;;;;5093615;28;20373;-42
2022/08/10 01:28:16;;;;;;;;;;;;;;;;;;5095080;28;20380;-42
2022/08/10 01:30:42;;;;;;;;;;;;;;;;;;5094995;28;19964;-43
2022/08/10 01:33:07;;;;;;;;;;;;;;;;;;5094878;28;19912;-41
2022/08/10 01:35:32;;;;;;;;;;;;;;;;;;5095317;28;20374;-41
2022/08/10 01:37:57;;;;;;;;;;;;;;;;;;5094849;28;20365;-42
2022/08/10 01:40:24;;;;;;;;;;;;;;;;;;5094735;28;19916;-41
2022/08/10 01:42:49;;;;;;;;;;;;;;;;;;5095087;28;20263;-41
2022/08/10 01:45:15;;;;;;;;;;;;;;;;;;5094644;28;19923;-41
2022/08/10 01:50:25;;;;;;;;;;;;;;;;;;5094518;28;19922;-41
2022/08/10 01:52:50;;;;;;;;;;;;;;;;;;5094851;28;19998;-41
2022/08/10 01:55:16;;;;;;;;;;;;;;;;;;5094415;28;19916;-40
2022/08/10 01:57:41;;;;;;;;;;;;;;;;;;5094719;28;20019;-42
2022/08/10 02:00:06;;;;;;;;;;;;;;;;;;5094758;28;20511;-42
2022/08/10 02:02:31;;;;;;;;;;;;;;;;;;5094598;28;20350;-41
2022/08/10 02:04:57;;;;;;;;;;;;;;;;;;5093197;28;19923;-41
2022/08/10 02:07:22;;;;;;;;;;;;;;;;;;5094334;28;19912;-41
2022/08/10 02:09:47;;;;;;;;;;;;;;;;;;5094461;28;19912;-41
2022/08/10 02:12:12;;;;;;;;;;;;;;;;;;5094230;28;20297;-41
2022/08/10 02:14:37;;;;;;;;;;;;;;;;;;5094546;28;20376;-44
2022/08/10 02:17:03;;;;;;;;;;;;;;;;;;5093931;28;20362;-41
2022/08/10 02:19:28;;;;;;;;;;;;;;;;;;5094014;28;19920;-42
2022/08/10 02:21:53;;;;;;;;;;;;;;;;;;5093949;28;19912;-41
2022/08/10 02:24:19;;;;;;;;;;;;;;;;;;5094198;28;19916;-42
2022/08/10 02:26:44;;;;;;;;;;;;;;;;;;5093955;28;20410;-41
2022/08/10 02:29:09;;;;;;;;;;;;;;;;;;5093800;28;19916;-41
2022/08/10 02:31:34;;;;;;;;;;;;;;;;;;5092561;28;20608;-42
2022/08/10 02:34:00;;;;;;;;;;;;;;;;;;5093727;28;19912;-44
2022/08/10 02:36:25;;;;;;;;;;;;;;;;;;5093942;28;19909;-42
2022/08/10 02:38:50;;;;;;;;;;;;;;;;;;5093686;28;19920;-41
2022/08/10 02:41:16;;;;;;;;;;;;;;;;;;5092314;28;19908;-41
2022/08/10 02:43:41;;;;;;;;;;;;;;;;;;5093606;28;19958;-41
2022/08/10 02:46:06;;;;;;;;;;;;;;;;;;5093893;28;19908;-41
2022/08/10 02:48:31;;;;;;;;;;;;;;;;;;5093541;28;20275;-41
2022/08/10 02:50:57;;;;;;;;;;;;;;;;;;5093447;28;19919;-41
2022/08/10 02:53:22;;;;;;;;;;;;;;;;;;5093593;28;19927;-41
2022/08/10 02:55:48;;;;;;;;;;;;;;;;;;5093454;28;19986;-42
2022/08/10 02:58:13;;;;;;;;;;;;;;;;;;5093401;28;19931;-41
2022/08/10 03:00:38;;;;;;;;;;;;;;;;;;5093557;28;20341;-41
2022/08/10 03:03:04;;;;;;;;;;;;;;;;;;5093567;28;19912;-41
2022/08/10 03:05:29;;;;;;;;;;;;;;;;;;5093232;28;19915;-41
2022/08/10 03:07:55;;;;;;;;;;;;;;;;;;5093268;28;19912;-41
2022/08/10 03:10:20;;;;;;;;;;;;;;;;;;5093152;28;19977;-41
2022/08/10 03:12:45;;;;;;;;;;;;;;;;;;5092972;28;19912;-41
2022/08/10 03:15:10;;;;;;;;;;;;;;;;;;5093063;28;19915;-41
2022/08/10 03:17:36;;;;;;;;;;;;;;;;;;5092755;28;19920;-41
2022/08/10 03:20:01;;;;;;;;;;;;;;;;;;5092902;28;20007;-41
2022/08/10 03:22:26;;;;;;;;;;;;;;;;;;5092804;28;19912;-42
2022/08/10 03:24:51;;;;;;;;;;;;;;;;;;5092878;28;19961;-41
2022/08/10 03:27:17;;;;;;;;;;;;;;;;;;5092723;28;19923;-41
2022/08/10 03:29:42;;;;;;;;;;;;;;;;;;5093108;28;19931;-41
2022/08/10 03:32:07;;;;;;;;;;;;;;;;;;5092959;28;19912;-42
2022/08/10 03:34:32;;;;;;;;;;;;;;;;;;5092611;28;20329;-42
2022/08/10 03:36:58;;;;;;;;;;;;;;;;;;5092717;28;19920;-41
2022/08/10 03:39:23;;;;;;;;;;;;;;;;;;5092804;28;19916;-41
2022/08/10 03:41:49;;;;;;;;;;;;;;;;;;5092781;28;20380;-41
2022/08/10 03:44:14;;;;;;;;;;;;;;;;;;5092442;28;19953;-42
2022/08/10 03:46:39;;;;;;;;;;;;;;;;;;5092500;28;20374;-40
2022/08/10 03:49:04;;;;;;;;;;;;;;;;;;5092014;28;19915;-41
2022/08/10 03:51:30;;;;;;;;;;;;;;;;;;5092314;28;19916;-41
2022/08/10 03:53:55;;;;;;;;;;;;;;;;;;5092675;28;20455;-41
2022/08/10 03:56:20;;;;;;;;;;;;;;;;;;5092237;28;20415;-41
2022/08/10 03:58:45;;;;;;;;;;;;;;;;;;5092203;28;19916;-42
2022/08/10 04:01:11;;;;;;;;;;;;;;;;;;5092185;28;19916;-43
2022/08/10 04:03:36;;;;;;;;;;;;;;;;;;5092386;28;20007;-41
2022/08/10 04:06:01;;;;;;;;;;;;;;;;;;5092206;28;20366;-42
2022/08/10 04:08:27;;;;;;;;;;;;;;;;;;5092146;28;19988;-41
2022/08/10 04:10:52;;;;;;;;;;;;;;;;;;5092035;28;19920;-41
2022/08/10 04:13:17;;;;;;;;;;;;;;;;;;5092076;28;19954;-41
2022/08/10 04:15:42;;;;;;;;;;;;;;;;;;5092054;28;19924;-41
2022/08/10 04:18:08;;;;;;;;;;;;;;;;;;5091978;28;19920;-41
2022/08/10 04:20:33;;;;;;;;;;;;;;;;;;5092023;28;19916;-41
2022/08/10 04:22:58;;;;;;;;;;;;;;;;;;5091999;28;20298;-41
2022/08/10 04:25:24;;;;;;;;;;;;;;;;;;5092164;28;19965;-41
2022/08/10 04:27:49;;;;;;;;;;;;;;;;;;5092020;28;19908;-41
2022/08/10 04:30:14;;;;;;;;;;;;;;;;;;5091997;28;20316;-42
2022/08/10 04:32:40;;;;;;;;;;;;;;;;;;5092214;28;19908;-40
2022/08/10 04:35:05;;;;;;;;;;;;;;;;;;5092132;28;20012;-41
2022/08/10 04:37:31;;;;;;;;;;;;;;;;;;5091730;28;20308;-42
2022/08/10 04:39:56;;;;;;;;;;;;;;;;;;5092147;28;19920;-43
2022/08/10 04:42:21;;;;;;;;;;;;;;;;;;5091702;28;20370;-41
2022/08/10 04:44:46;;;;;;;;;;;;;;;;;;5091782;28;19959;-42
2022/08/10 04:47:12;;;;;;;;;;;;;;;;;;5091713;28;19918;-40
2022/08/10 04:49:37;;;;;;;;;;;;;;;;;;5091781;28;19969;-41
2022/08/10 04:52:02;;;;;;;;;;;;;;;;;;5091975;28;19915;-42
2022/08/10 04:54:28;;;;;;;;;;;;;;;;;;5091910;28;19968;-41
2022/08/10 04:56:53;;;;;;;;;;;;;;;;;;5073655;28;20653;-40
2022/08/10 04:59:19;;;;;;;;;;;;;;;;;;5091462;28;19991;-41
2022/08/10 05:01:45;;;;;;;;;;;;;;;;;;5095143;28;19908;-40
2022/08/10 05:04:10;;;;;;;;;;;;;;;;;;5094168;28;20282;-41
2022/08/10 05:06:36;;;;;;;;;;;;;;;;;;5095486;28;19912;-40
2022/08/10 05:09:01;;;;;;;;;;;;;;;;;;5094261;28;19916;-41
2022/08/10 05:11:26;;;;;;;;;;;;;;;;;;5095349;28;19908;-40
2022/08/10 05:13:52;;;;;;;;;;;;;;;;;;5094000;28;19957;-41
2022/08/10 05:16:17;;;;;;;;;;;;;;;;;;5095298;28;19915;-41
2022/08/10 05:18:42;;;;;;;;;;;;;;;;;;5095142;28;19924;-41
2022/08/10 05:21:07;;;;;;;;;;;;;;;;;;5095208;28;20397;-42
2022/08/10 05:23:33;;;;;;;;;;;;;;;;;;5095179;28;19923;-41
2022/08/10 05:25:58;;;;;;;;;;;;;;;;;;5095192;28;19941;-41
2022/08/10 05:28:23;;;;;;;;;;;;;;;;;;5095013;28;19924;-41
2022/08/10 05:30:49;;;;;;;;;;;;;;;;;;5095104;28;19912;-41
2022/08/10 05:33:14;;;;;;;;;;;;;;;;;;5094920;28;19916;-41
2022/08/10 05:35:40;;;;;;;;;;;;;;;;;;5095200;28;19919;-42
2022/08/10 05:38:05;;;;;;;;;;;;;;;;;;5094841;28;20251;-42
2022/08/10 05:40:30;;;;;;;;;;;;;;;;;;5094798;28;19908;-42
2022/08/10 05:42:55;;;;;;;;;;;;;;;;;;5094862;28;19916;-42
2022/08/10 05:45:21;;;;;;;;;;;;;;;;;;5094781;28;20314;-41
2022/08/10 05:47:46;;;;;;;;;;;;;;;;;;5094815;28;19912;-41
2022/08/10 05:50:11;;;;;;;;;;;;;;;;;;5094600;28;19960;-41
2022/08/10 05:52:37;;;;;;;;;;;;;;;;;;5094652;28;19919;-41
2022/08/10 05:55:02;;;;;;;;;;;;;;;;;;5094948;28;19919;-42
2022/08/10 05:57:28;;;;;;;;;;;;;;;;;;5094446;28;19912;-41
2022/08/10 05:59:53;;;;;;;;;;;;;;;;;;5094828;28;19908;-41
2022/08/10 06:02:19;;;;;;;;;;;;;;;;;;5094447;28;19973;-41
2022/08/10 06:04:44;;;;;;;;;;;;;;;;;;5094381;28;20473;-41
2022/08/10 06:07:09;;;;;;;;;;;;;;;;;;5094420;28;19912;-42
2022/08/10 06:09:35;;;;;;;;;;;;;;;;;;5094317;28;19935;-41
2022/08/10 06:12:00;;;;;;;;;;;;;;;;;;5093851;28;19969;-41
2022/08/10 06:17:09;;;;;;;;;;;;;;;;;;5094076;28;19959;-41
2022/08/10 06:19:34;;;;;;;;;;;;;;;;;;5094259;28;20365;-41
2022/08/10 06:22:00;;;;;;;;;;;;;;;;;;5093978;28;19919;-41
2022/08/10 06:24:25;;;;;;;;;;;;;;;;;;5093945;28;19912;-41
2022/08/10 06:26:50;;;;;;;;;;;;;;;;;;5094074;28;20306;-42
2022/08/10 06:29:16;;;;;;;;;;;;;;;;;;5094134;28;19908;-43
2022/08/10 06:31:41;;;;;;;;;;;;;;;;;;5093854;28;20423;-41
2022/08/10 06:34:06;;;;;;;;;;;;;;;;;;5094087;28;19908;-41
2022/08/10 06:36:32;;;;;;;;;;;;;;;;;;5093742;28;20385;-41
2022/08/10 06:38:57;;;;;;;;;;;;;;;;;;5093600;28;19919;-41
2022/08/10 06:41:22;;;;;;;;;;;;;;;;;;5093922;28;19927;-41
2022/08/10 06:43:47;;;;;;;;;;;;;;;;;;5092705;28;20049;-40
2022/08/10 06:46:13;;;;;;;;;;;;;;;;;;5093796;28;19916;-41
2022/08/10 06:48:39;;;;;;;;;;;;;;;;;;5092286;28;19937;-42
2022/08/10 06:51:04;;;;;;;;;;;;;;;;;;5092213;28;19938;-41
2022/08/10 06:53:29;;;;;;;;;;;;;;;;;;5093330;28;19909;-41
2022/08/10 06:55:56;;;;;;;;;;;;;;;;;;5093337;28;19926;-41
2022/08/10 06:58:21;;;;;;;;;;;;;;;;;;5093307;28;20425;-42
2022/08/10 07:00:46;;;;;;;;;;;;;;;;;;5093495;28;19923;-41
2022/08/10 07:03:12;;;;;;;;;;;;;;;;;;5093265;28;19908;-41
2022/08/10 07:05:38;;;;;;;;;;;;;;;;;;5093164;28;19912;-41
2022/08/10 07:08:03;;;;;;;;;;;;;;;;;;5093602;28;19965;-42
2022/08/10 07:10:28;;;;;;;;;;;;;;;;;;5091878;28;19912;-41
2022/08/10 07:12:54;;;;;;;;;;;;;;;;;;5093069;28;20399;-42
2022/08/10 07:15:19;;;;;;;;;;;;;;;;;;5092985;28;20016;-42
2022/08/10 07:17:45;;;;;;;;;;;;;;;;;;5092744;28;19926;-41
2022/08/10 07:20:13;;;;;;;;;;;;;;;;;;5092946;28;20417;-42
2022/08/10 07:22:39;;;;;;;;;;;;;;;;;;5090923;28;19995;-42
2022/08/10 07:25:04;;;;;;;;;;;;;;;;;;5092897;28;19926;-42
2022/08/10 07:27:29;;;;;;;;;;;;;;;;;;5092882;28;20530;-42
2022/08/10 07:29:55;;;;;;;;;;;;;;;;;;5092663;28;20316;-42
2022/08/10 07:32:20;;;;;;;;;;;;;;;;;;5092738;28;19908;-42
2022/08/10 07:34:46;;;;;;;;;;;;;;;;;;5092697;28;20117;-42
2022/08/10 07:37:12;;;;;;;;;;;;;;;;;;5091206;28;19912;-42
2022/08/10 07:39:37;;;;;;;;;;;;;;;;;;5092538;28;19965;-43
2022/08/10 07:42:03;;;;;;;;;;;;;;;;;;5092904;28;19912;-42
2022/08/10 07:44:28;;;;;;;;;;;;;;;;;;5092658;28;19957;-42
2022/08/10 07:46:53;;;;;;;;;;;;;;;;;;5092494;28;20370;-43
2022/08/10 07:49:19;;;;;;;;;;;;;;;;;;5092355;28;19926;-42
2022/08/10 07:51:44;;;;;;;;;;;;;;;;;;5092436;28;20391;-43
2022/08/10 07:54:14;;;;;;;;;;;;;;;;;;5092490;28;19916;-42
2022/08/10 07:56:39;;;;;;;;;;;;;;;;;;5091026;28;19916;-42
2022/08/10 07:59:05;;;;;;;;;;;;;;;;;;5092266;28;19920;-42
2022/08/10 08:01:30;;;;;;;;;;;;;;;;;;5092193;28;19908;-42
2022/08/10 08:03:55;;;;;;;;;;;;;;;;;;5092219;28;19965;-41
2022/08/10 08:06:21;;;;;;;;;;;;;;;;;;5092130;28;19934;-42
2022/08/10 08:08:46;;;;;;;;;;;;;;;;;;5092503;28;19923;-41
2022/08/10 08:11:11;;;;;;;;;;;;;;;;;;5092359;28;20325;-43
2022/08/10 08:13:36;;;;;;;;;;;;;;;;;;5092328;28;20441;-43
2022/08/10 08:16:04;;;;;;;;;;;;;;;;;;5092131;28;19946;-42
2022/08/10 08:18:29;;;;;;;;;;;;;;;;;;5091813;28;19920;-43
2022/08/10 08:20:56;;;;;;;;;;;;;;;;;;5092297;28;20354;-42
2022/08/10 08:23:22;;;;;;;;;;;;;;;;;;5091999;28;19958;-42
2022/08/10 08:25:47;;;;;;;;;;;;;;;;;;5091909;28;19912;-42
2022/08/10 08:28:12;;;;;;;;;;;;;;;;;;5091966;28;19930;-42
2022/08/10 08:30:38;;;;;;;;;;;;;;;;;;5091885;28;19909;-42
2022/08/10 08:33:03;;;;;;;;;;;;;;;;;;5091919;28;19912;-43
2022/08/10 08:35:28;;;;;;;;;;;;;;;;;;5095432;28;19908;-43
2022/08/10 08:37:54;;;;;;;;;;;;;;;;;;5096059;28;20304;-43
2022/08/10 08:40:19;;;;;;;;;;;;;;;;;;5095856;28;19919;-42
2022/08/10 08:42:45;;;;;;;;;;;;;;;;;;5096302;28;19916;-43
2022/08/10 08:45:10;;;;;;;;;;;;;;;;;;5096306;28;20007;-42
2022/08/10 08:47:35;;;;;;;;;;;;;;;;;;5096067;28;19916;-42
2022/08/10 08:50:01;;;;;;;;;;;;;;;;;;5095865;28;19962;-43
2022/08/10 08:52:26;;;;;;;;;;;;;;;;;;5094401;28;19924;-42
2022/08/10 08:54:51;;;;;;;;;;;;;;;;;;5095725;28;19965;-43
2022/08/10 08:57:17;;;;;;;;;;;;;;;;;;5095745;28;19965;-43
2022/08/10 08:59:42;;;;;;;;;;;;;;;;;;5095597;28;20071;-42
2022/08/10 09:02:08;;;;;;;;;;;;;;;;;;5095897;28;19912;-42
2022/08/10 09:04:33;;;;;;;;;;;;;;;;;;5095482;28;20373;-42
2022/08/10 09:07:01;;;;;;;;;;;;;;;;;;5095826;28;19912;-42
2022/08/10 09:09:27;;;;;;;;;;;;;;;;;;5094061;28;19915;-42
2022/08/10 09:11:52;;;;;;;;;;;;;;;;;;5095398;28;20382;-44
2022/08/10 09:14:17;;;;;;;;;;;;;;;;;;5095414;28;19909;-42
2022/08/10 09:16:43;;;;;;;;;;;;;;;;;;5095355;28;19916;-42
2022/08/10 09:19:08;;;;;;;;;;;;;;;;;;5093931;28;19920;-42
2022/08/10 09:21:33;;;;;;;;;;;;;;;;;;5095229;28;19912;-42
2022/08/10 09:23:59;;;;;;;;;;;;;;;;;;5095165;28;20267;-42
2022/08/10 09:26:24;;;;;;;;;;;;;;;;;;5095467;28;19923;-42
2022/08/10 09:28:49;;;;;;;;;;;;;;;;;;5095148;28;20377;-43
2022/08/10 09:31:17;;;;;;;;;;;;;;;;;;5093648;28;20270;-42
2022/08/10 09:33:43;;;;;;;;;;;;;;;;;;5095114;28;20382;-42
2022/08/10 09:36:08;;;;;;;;;;;;;;;;;;5095298;28;19962;-42
2022/08/10 09:38:33;;;;;;;;;;;;;;;;;;5094785;28;19942;-42
2022/08/10 09:40:59;;;;;;;;;;;;;;;;;;5094916;28;19965;-42
2022/08/10 09:43:24;;;;;;;;;;;;;;;;;;5094760;28;19963;-43
2022/08/10 09:45:49;;;;;;;;;;;;;;;;;;5094115;28;20273;-43
2022/08/10 09:48:15;;;;;;;;;;;;;;;;;;5094682;28;20449;-43
2022/08/10 09:50:40;;;;;;;;;;;;;;;;;;5094954;28;19977;-43
2022/08/10 09:53:05;;;;;;;;;;;;;;;;;;5094688;28;20353;-42
2022/08/10 09:55:31;;;;;;;;;;;;;;;;;;5094874;28;19938;-42
2022/08/10 09:57:56;;;;;;;;;;;;;;;;;;5094561;28;19920;-42
2022/08/10 10:00:22;;;;;;;;;;;;;;;;;;5094489;28;20287;-42
2022/08/10 10:02:48;;;;;;;;;;;;;;;;;;5094493;28;20350;-43
2022/08/10 10:05:13;;;;;;;;;;;;;;;;;;5094364;28;19923;-47
2022/08/10 10:07:38;;;;;;;;;;;;;;;;;;5094307;28;20308;-42
2022/08/10 10:10:04;;;;;;;;;;;;;;;;;;5094282;28;19959;-43
2022/08/10 10:12:30;;;;;;;;;;;;;;;;;;5094252;28;19908;-42
2022/08/10 10:17:41;;;;;;;;;;;;;;;;;;5092742;28;19916;-42
2022/08/10 10:20:06;;;;;;;;;;;;;;;;;;5094345;28;19909;-42
2022/08/10 10:22:32;;;;;;;;;;;;;;;;;;5094088;28;20285;-42
2022/08/10 10:24:57;;;;;;;;;;;;;;;;;;5094326;28;20349;-42
2022/08/10 10:27:22;;;;;;;;;;;;;;;;;;5093977;28;19932;-43
2022/08/10 10:29:48;;;;;;;;;;;;;;;;;;5092771;28;19908;-43
2022/08/10 10:32:13;;;;;;;;;;;;;;;;;;5093901;28;19920;-42
2022/08/10 10:34:38;;;;;;;;;;;;;;;;;;5094065;28;19912;-43
2022/08/10 10:37:05;;;;;;;;;;;;;;;;;;5093853;28;20420;-43
2022/08/10 10:39:30;;;;;;;;;;;;;;;;;;5093726;28;19986;-42
2022/08/10 10:41:56;;;;;;;;;;;;;;;;;;5093591;28;20385;-42
2022/08/10 10:44:21;;;;;;;;;;;;;;;;;;5093641;28;20259;-42
2022/08/10 10:46:47;;;;;;;;;;;;;;;;;;5093660;28;19920;-42
2022/08/10 10:49:15;;;;;;;;;;;;;;;;;;5093538;28;19912;-42
2022/08/10 10:51:40;;;;;;;;;;;;;;;;;;5093512;28;20015;-42
2022/08/10 10:54:05;;;;;;;;;;;;;;;;;;5093570;28;19991;-42
2022/08/10 10:56:31;;;;;;;;;;;;;;;;;;5093590;28;19912;-42
2022/08/10 10:58:56;;;;;;;;;;;;;;;;;;5092114;28;20281;-44
2022/08/10 11:01:21;;;;;;;;;;;;;;;;;;5093577;28;19943;-45
2022/08/10 11:03:47;;;;;;;;;;;;;;;;;;5093245;28;20388;-41
2022/08/10 11:06:12;;;;;;;;;;;;;;;;;;5093344;28;19973;-43
2022/08/10 11:08:38;;;;;;;;;;;;;;;;;;5093184;28;19908;-42
2022/08/10 11:11:03;;;;;;;;;;;;;;;;;;5093406;28;19935;-42
2022/08/10 11:13:29;;;;;;;;;;;;;;;;;;5091884;28;19962;-42
2022/08/10 11:15:54;;;;;;;;;;;;;;;;;;5091684;28;20007;-42
2022/08/10 11:18:19;;;;;;;;;;;;;;;;;;5092777;28;20426;-42
2022/08/10 11:20:45;;;;;;;;;;;;;;;;;;5093219;28;19948;-42
2022/08/10 11:23:10;;;;;;;;;;;;;;;;;;5093263;28;20361;-42
2022/08/10 11:25:35;;;;;;;;;;;;;;;;;;5092856;28;19919;-42
2022/08/10 11:28:00;;;;;;;;;;;;;;;;;;5093120;28;19908;-43
2022/08/10 11:30:26;;;;;;;;;;;;;;;;;;5093021;28;20367;-42
2022/08/10 11:32:51;;;;;;;;;;;;;;;;;;5092859;28;20425;-43
2022/08/10 11:35:17;;;;;;;;;;;;;;;;;;5092901;28;19965;-43
2022/08/10 11:37:42;;;;;;;;;;;;;;;;;;5092603;28;19914;-42
2022/08/10 11:40:08;;;;;;;;;;;;;;;;;;5092666;28;19994;-42
2022/08/10 11:42:33;;;;;;;;;;;;;;;;;;5092554;28;19934;-42
2022/08/10 11:44:58;;;;;;;;;;;;;;;;;;5092520;28;20084;-42
2022/08/10 11:47:24;;;;;;;;;;;;;;;;;;5092401;28;19912;-42
2022/08/10 11:49:49;;;;;;;;;;;;;;;;;;5092495;28;20005;-42
2022/08/10 11:52:14;;;;;;;;;;;;;;;;;;5092377;28;19919;-42
2022/08/10 11:54:41;;;;;;;;;;;;;;;;;;5092333;28;20002;-43
2022/08/10 11:57:06;;;;;;;;;;;;;;;;;;5091220;28;20333;-42
2022/08/10 12:02:15;;;;;;;;;;;;;;;;;;5092495;28;19931;-43
2022/08/10 12:04:41;;;;;;;;;;;;;;;;;;5092350;28;19969;-43
2022/08/10 12:07:07;;;;;;;;;;;;;;;;;;5090881;28;20010;-43
2022/08/10 12:09:32;;;;;;;;;;;;;;;;;;5092134;28;20543;-42
2022/08/10 12:11:57;;;;;;;;;;;;;;;;;;5092152;28;19916;-42
2022/08/10 12:14:22;;;;;;;;;;;;;;;;;;5090834;28;19994;-42
2022/08/10 12:16:48;;;;;;;;;;;;;;;;;;5090835;28;19912;-42
2022/08/10 12:19:15;;;;;;;;;;;;;;;;;;5091235;28;20234;-42
2022/08/10 12:21:40;;;;;;;;;;;;;;;;;;5091936;28;20544;-42
2022/08/10 12:24:06;;;;;;;;;;;;;;;;;;5092067;28;19908;-42
2022/08/10 12:26:31;;;;;;;;;;;;;;;;;;5091976;28;20014;-42
2022/08/10 12:28:56;;;;;;;;;;;;;;;;;;5091911;28;19923;-43
2022/08/10 12:31:22;;;;;;;;;;;;;;;;;;5091835;28;19977;-41
2022/08/10 12:33:47;;;;;;;;;;;;;;;;;;5092274;28;19908;-43
2022/08/10 12:36:13;;;;;;;;;;;;;;;;;;5091888;28;19916;-42
2022/08/10 12:38:38;;;;;;;;;;;;;;;;;;5091772;28;20349;-42
2022/08/10 12:41:04;;;;;;;;;;;;;;;;;;5091781;28;19957;-43
2022/08/10 12:43:29;;;;;;;;;;;;;;;;;;5091686;28;19908;-42
2022/08/10 12:45:55;;;;;;;;;;;;;;;;;;5092131;28;19912;-43
2022/08/10 12:48:20;;;;;;;;;;;;;;;;;;5091702;28;20010;-42
2022/08/10 12:50:45;;;;;;;;;;;;;;;;;;5091803;28;19919;-42
2022/08/10 12:53:10;;;;;;;;;;;;;;;;;;5091869;28;19909;-43
2022/08/10 12:55:36;;;;;;;;;;;;;;;;;;5091682;28;19926;-43
2022/08/10 12:58:01;;;;;;;;;;;;;;;;;;5091997;28;19919;-42
2022/08/10 13:00:26;;;;;;;;;;;;;;;;;;5091575;28;19923;-42
2022/08/10 13:02:52;;;;;;;;;;;;;;;;;;5091616;28;19912;-43
2022/08/10 13:05:17;;;;;;;;;;;;;;;;;;5091878;28;19916;-43
2022/08/10 13:07:42;;;;;;;;;;;;;;;;;;5091936;28;20279;-42
2022/08/10 13:10:08;;;;;;;;;;;;;;;;;;5091621;28;20346;-43
2022/08/10 13:12:33;;;;;;;;;;;;;;;;;;5091503;28;19965;-42
2022/08/10 13:14:58;;;;;;;;;;;;;;;;;;5091856;28;19919;-42
2022/08/10 13:17:24;;;;;;;;;;;;;;;;;;5091506;28;20360;-42
2022/08/10 13:19:49;;;;;;;;;;;;;;;;;;5091466;28;19920;-42
2022/08/10 13:22:14;;;;;;;;;;;;;;;;;;5094109;28;20356;-43
2022/08/10 13:24:40;;;;;;;;;;;;;;;;;;5095508;28;20032;-42
2022/08/10 13:27:05;;;;;;;;;;;;;;;;;;5095237;28;20380;-42
2022/08/10 13:29:31;;;;;;;;;;;;;;;;;;5095080;28;19912;-42
2022/08/10 13:31:56;;;;;;;;;;;;;;;;;;5095271;28;20353;-43
2022/08/10 13:34:22;;;;;;;;;;;;;;;;;;5095296;28;19965;-42
2022/08/10 13:36:47;;;;;;;;;;;;;;;;;;5095020;28;19915;-43
2022/08/10 13:39:12;;;;;;;;;;;;;;;;;;5094851;28;19928;-42
2022/08/10 13:41:38;;;;;;;;;;;;;;;;;;5095137;28;19999;-42
2022/08/10 13:44:03;;;;;;;;;;;;;;;;;;5094935;28;20401;-42
2022/08/10 13:46:28;;;;;;;;;;;;;;;;;;5094744;28;19916;-43
2022/08/10 13:48:54;;;;;;;;;;;;;;;;;;5095072;28;19919;-43
2022/08/10 13:51:19;;;;;;;;;;;;;;;;;;5094618;28;19998;-43
2022/08/10 13:53:45;;;;;;;;;;;;;;;;;;5094643;28;19918;-43
2022/08/10 13:56:10;;;;;;;;;;;;;;;;;;5094753;28;19908;-43
2022/08/10 13:58:35;;;;;;;;;;;;;;;;;;5094678;28;20372;-43
2022/08/10 14:01:01;;;;;;;;;;;;;;;;;;5094517;28;19908;-42
2022/08/10 14:03:26;;;;;;;;;;;;;;;;;;5094495;28;19959;-42
2022/08/10 14:05:51;;;;;;;;;;;;;;;;;;5094513;28;19908;-43
2022/08/10 14:08:17;;;;;;;;;;;;;;;;;;5094396;28;19962;-43
2022/08/10 14:10:42;;;;;;;;;;;;;;;;;;5094600;28;20019;-43
2022/08/10 14:13:08;;;;;;;;;;;;;;;;;;5093452;28;19920;-43
2022/08/10 14:15:33;;;;;;;;;;;;;;;;;;5094265;28;19916;-42
2022/08/10 14:17:58;;;;;;;;;;;;;;;;;;5093916;28;20011;-43
2022/08/10 14:20:24;;;;;;;;;;;;;;;;;;5094195;28;19933;-42
2022/08/10 14:22:49;;;;;;;;;;;;;;;;;;5094184;28;20374;-43
2022/08/10 14:25:15;;;;;;;;;;;;;;;;;;5094335;28;19970;-43
2022/08/10 14:27:40;;;;;;;;;;;;;;;;;;5094142;28;19912;-43
2022/08/10 14:30:05;;;;;;;;;;;;;;;;;;5094165;28;19947;-43
2022/08/10 14:32:31;;;;;;;;;;;;;;;;;;5093769;28;19912;-43
2022/08/10 14:34:56;;;;;;;;;;;;;;;;;;5093972;28;19935;-42
2022/08/10 14:37:21;;;;;;;;;;;;;;;;;;5094025;28;19912;-42
2022/08/10 14:39:47;;;;;;;;;;;;;;;;;;5093683;28;20263;-42
2022/08/10 14:42:12;;;;;;;;;;;;;;;;;;5094006;28;19948;-43
2022/08/10 14:44:37;;;;;;;;;;;;;;;;;;5093623;28;19915;-43
2022/08/10 14:47:03;;;;;;;;;;;;;;;;;;5092486;28;19970;-43
2022/08/10 14:49:28;;;;;;;;;;;;;;;;;;5093383;28;19959;-43
2022/08/10 14:51:53;;;;;;;;;;;;;;;;;;5093823;28;20014;-43
2022/08/10 14:54:19;;;;;;;;;;;;;;;;;;5093452;28;20433;-43
2022/08/10 14:56:44;;;;;;;;;;;;;;;;;;5093444;28;19912;-43
2022/08/10 14:59:09;;;;;;;;;;;;;;;;;;5093660;28;19923;-42
2022/08/10 15:01:35;;;;;;;;;;;;;;;;;;5093334;28;19916;-43
2022/08/10 15:04:01;;;;;;;;;;;;;;;;;;5093328;28;19908;-44
2022/08/10 15:06:27;;;;;;;;;;;;;;;;;;5093121;28;19919;-43
2022/08/10 15:08:52;;;;;;;;;;;;;;;;;;5093239;28;19908;-43
2022/08/10 15:11:17;;;;;;;;;;;;;;;;;;5093104;28;19912;-45
2022/08/10 15:13:42;;;;;;;;;;;;;;;;;;5093360;28;19935;-42
2022/08/10 15:16:08;;;;;;;;;;;;;;;;;;5093457;28;20262;-43
2022/08/10 15:18:33;;;;;;;;;;;;;;;;;;5092729;28;20285;-42
2022/08/10 15:20:58;;;;;;;;;;;;;;;;;;5093205;28;19964;-43
2022/08/10 15:23:25;;;;;;;;;;;;;;;;;;5092982;28;20011;-43
2022/08/10 15:25:51;;;;;;;;;;;;;;;;;;5092813;28;20360;-43
2022/08/10 15:28:16;;;;;;;;;;;;;;;;;;5093184;28;19929;-42
2022/08/10 15:30:41;;;;;;;;;;;;;;;;;;5091479;28;19965;-42
2022/08/10 15:38:34;;;;;;;;;;;;;;;;;;5091300;28;20336;-43
2022/08/10 15:41:00;;;;;;;;;;;;;;;;;;5092867;28;19908;-42
2022/08/10 15:43:25;;;;;;;;;;;;;;;;;;5092389;28;19923;-42
2022/08/10 15:45:51;;;;;;;;;;;;;;;;;;5092442;28;19912;-42
2022/08/10 15:48:16;;;;;;;;;;;;;;;;;;5092413;28;19968;-41
2022/08/10 15:50:41;;;;;;;;;;;;;;;;;;5092372;28;19974;-42
2022/08/10 15:53:06;;;;;;;;;;;;;;;;;;5092335;28;19919;-43
2022/08/10 15:55:32;;;;;;;;;;;;;;;;;;5092529;28;19916;-43
2022/08/10 15:57:57;;;;;;;;;;;;;;;;;;5092550;28;19947;-42
2022/08/10 16:00:23;;;;;;;;;;;;;;;;;;5092241;28;20399;-42
2022/08/10 16:02:48;;;;;;;;;;;;;;;;;;5092343;28;19918;-43
2022/08/10 16:05:13;;;;;;;;;;;;;;;;;;5092620;28;19981;-42
2022/08/10 16:07:38;;;;;;;;;;;;;;;;;;5092433;28;20423;-42
2022/08/10 16:10:04;;;;;;;;;;;;;;;;;;5092162;28;19912;-43
2022/08/10 16:12:31;;;;;;;;;;;;;;;;;;5092192;28;20006;-43
2022/08/10 16:14:56;;;;;;;;;;;;;;;;;;5092103;28;20033;-43
2022/08/10 16:17:21;;;;;;;;;;;;;;;;;;5091902;28;19956;-43
2022/08/10 16:19:47;;;;;;;;;;;;;;;;;;5092007;28;19962;-43
2022/08/10 16:22:12;;;;;;;;;;;;;;;;;;5092050;28;20251;-42
2022/08/10 16:24:38;;;;;;;;;;;;;;;;;;5091965;28;19915;-42
2022/08/10 16:27:06;;;;;;;;;;;;;;;;;;5092040;28;19916;-42
2022/08/10 16:29:31;;;;;;;;;;;;;;;;;;5091835;28;20007;-42
2022/08/10 16:31:56;;;;;;;;;;;;;;;;;;5091994;28;20011;-42
2022/08/10 16:34:22;;;;;;;;;;;;;;;;;;5091920;28;19912;-43
2022/08/10 16:36:47;;;;;;;;;;;;;;;;;;5090509;28;20301;-42
2022/08/10 16:39:12;;;;;;;;;;;;;;;;;;5090479;28;19920;-43
2022/08/10 16:41:37;;;;;;;;;;;;;;;;;;5091896;28;19912;-43
2022/08/10 16:44:03;;;;;;;;;;;;;;;;;;5091847;28;19912;-43
2022/08/10 16:46:28;;;;;;;;;;;;;;;;;;5091735;28;19919;-42
2022/08/10 16:48:53;;;;;;;;;;;;;;;;;;5091885;28;19912;-43